sensor_id;sensor_type;location;lat;lon;timestamp;P1;durP1;ratioP1;P2;durP2;ratioP2
19187;SDS011;9726;52.198;8.792;2023-10-19T00:00:35;41.33;;;24.10;;
19187;SDS011;9726;52.198;8.792;2023-10-19T00:03:06;42.23;;;25.10;;
19187;SDS011;9726;52.198;8.792;2023-10-19T00:05:33;44.80;;;23.67;;
19187;SDS011;9726;52.198;8.792;2023-10-19T00:08:02;41.47;;;24.23;;
19187;SDS011;9726;52.198;8.792;2023-10-19T00:10:49;45.20;;;25.23;;
19187;SDS011;9726;52.198;8.792;2023-10-19T00:13:39;43.97;;;26.13;;
19187;SDS011;9726;52.198;8.792;2023-10-19T00:16:07;53.33;;;28.40;;
19187;SDS011;9726;52.198;8.792;2023-10-19T00:18:43;45.60;;;25.50;;
19187;SDS011;9726;52.198;8.792;2023-10-19T00:21:11;45.73;;;27.30;;
19187;SDS011;9726;52.198;8.792;2023-10-19T00:23:56;46.73;;;26.53;;
19187;SDS011;9726;52.198;8.792;2023-10-19T00:26:25;49.17;;;26.93;;
19187;SDS011;9726;52.198;8.792;2023-10-19T00:28:57;48.13;;;26.70;;
19187;SDS011;9726;52.198;8.792;2023-10-19T00:31:28;50.23;;;27.97;;
19187;SDS011;9726;52.198;8.792;2023-10-19T00:33:56;60.17;;;29.40;;
19187;SDS011;9726;52.198;8.792;2023-10-19T00:36:24;57.53;;;31.20;;
19187;SDS011;9726;52.198;8.792;2023-10-19T00:38:52;51.50;;;30.63;;
19187;SDS011;9726;52.198;8.792;2023-10-19T00:41:22;52.13;;;29.57;;
19187;SDS011;9726;52.198;8.792;2023-10-19T00:43:57;59.23;;;31.87;;
19187;SDS011;9726;52.198;8.792;2023-10-19T00:46:29;55.90;;;31.33;;
19187;SDS011;9726;52.198;8.792;2023-10-19T00:49:05;57.13;;;30.93;;
19187;SDS011;9726;52.198;8.792;2023-10-19T00:51:34;62.57;;;31.97;;
19187;SDS011;9726;52.198;8.792;2023-10-19T00:54:03;59.30;;;32.53;;
19187;SDS011;9726;52.198;8.792;2023-10-19T00:56:35;63.93;;;31.97;;
19187;SDS011;9726;52.198;8.792;2023-10-19T00:59:03;57.57;;;33.80;;
19187;SDS011;9726;52.198;8.792;2023-10-19T01:01:42;60.37;;;31.77;;
19187;SDS011;9726;52.198;8.792;2023-10-19T01:04:11;58.33;;;31.70;;
19187;SDS011;9726;52.198;8.792;2023-10-19T01:06:47;58.97;;;32.73;;
19187;SDS011;9726;52.198;8.792;2023-10-19T01:09:34;62.97;;;32.87;;
19187;SDS011;9726;52.198;8.792;2023-10-19T01:12:03;63.33;;;33.37;;
19187;SDS011;9726;52.198;8.792;2023-10-19T01:15:01;57.97;;;31.47;;
19187;SDS011;9726;52.198;8.792;2023-10-19T01:17:35;57.97;;;32.37;;
19187;SDS011;9726;52.198;8.792;2023-10-19T01:20:08;59.90;;;32.70;;
19187;SDS011;9726;52.198;8.792;2023-10-19T01:25:48;62.23;;;32.27;;
19187;SDS011;9726;52.198;8.792;2023-10-19T01:28:23;66.53;;;34.23;;
19187;SDS011;9726;52.198;8.792;2023-10-19T01:31:16;61.17;;;32.53;;
19187;SDS011;9726;52.198;8.792;2023-10-19T01:33:57;63.77;;;32.97;;
19187;SDS011;9726;52.198;8.792;2023-10-19T01:36:25;65.43;;;34.33;;
19187;SDS011;9726;52.198;8.792;2023-10-19T01:38:56;68.73;;;34.10;;
19187;SDS011;9726;52.198;8.792;2023-10-19T01:41:28;65.80;;;35.97;;
19187;SDS011;9726;52.198;8.792;2023-10-19T01:43:58;68.87;;;35.87;;
19187;SDS011;9726;52.198;8.792;2023-10-19T01:46:33;63.70;;;34.40;;
19187;SDS011;9726;52.198;8.792;2023-10-19T01:49:06;76.60;;;36.57;;
19187;SDS011;9726;52.198;8.792;2023-10-19T01:51:35;78.77;;;36.03;;
19187;SDS011;9726;52.198;8.792;2023-10-19T01:54:05;70.47;;;36.63;;
19187;SDS011;9726;52.198;8.792;2023-10-19T01:56:34;71.93;;;36.93;;
19187;SDS011;9726;52.198;8.792;2023-10-19T01:59:06;75.17;;;35.70;;
19187;SDS011;9726;52.198;8.792;2023-10-19T02:01:36;67.23;;;34.03;;
19187;SDS011;9726;52.198;8.792;2023-10-19T02:04:05;73.63;;;37.13;;
19187;SDS011;9726;52.198;8.792;2023-10-19T02:06:35;82.30;;;35.70;;
19187;SDS011;9726;52.198;8.792;2023-10-19T02:09:06;70.83;;;35.73;;
19187;SDS011;9726;52.198;8.792;2023-10-19T02:11:57;68.20;;;36.10;;
19187;SDS011;9726;52.198;8.792;2023-10-19T02:14:27;70.47;;;36.00;;
19187;SDS011;9726;52.198;8.792;2023-10-19T02:16:56;71.50;;;36.50;;
19187;SDS011;9726;52.198;8.792;2023-10-19T02:19:26;73.43;;;35.83;;
19187;SDS011;9726;52.198;8.792;2023-10-19T02:21:55;73.97;;;35.57;;
19187;SDS011;9726;52.198;8.792;2023-10-19T02:24:23;74.97;;;36.37;;
19187;SDS011;9726;52.198;8.792;2023-10-19T02:26:52;72.33;;;37.00;;
19187;SDS011;9726;52.198;8.792;2023-10-19T02:29:20;76.17;;;37.47;;
19187;SDS011;9726;52.198;8.792;2023-10-19T02:32:05;79.40;;;38.53;;
19187;SDS011;9726;52.198;8.792;2023-10-19T02:34:33;76.30;;;37.60;;
19187;SDS011;9726;52.198;8.792;2023-10-19T02:37:01;78.50;;;35.57;;
19187;SDS011;9726;52.198;8.792;2023-10-19T02:39:29;69.70;;;34.87;;
19187;SDS011;9726;52.198;8.792;2023-10-19T02:41:57;83.60;;;35.97;;
19187;SDS011;9726;52.198;8.792;2023-10-19T02:44:27;78.23;;;36.13;;
19187;SDS011;9726;52.198;8.792;2023-10-19T02:46:57;70.73;;;35.70;;
19187;SDS011;9726;52.198;8.792;2023-10-19T02:49:27;72.20;;;37.53;;
19187;SDS011;9726;52.198;8.792;2023-10-19T02:51:57;74.37;;;35.27;;
19187;SDS011;9726;52.198;8.792;2023-10-19T02:54:30;77.13;;;35.90;;
19187;SDS011;9726;52.198;8.792;2023-10-19T02:57:02;74.57;;;34.87;;
19187;SDS011;9726;52.198;8.792;2023-10-19T02:59:34;72.93;;;36.03;;
19187;SDS011;9726;52.198;8.792;2023-10-19T03:02:02;72.33;;;34.77;;
19187;SDS011;9726;52.198;8.792;2023-10-19T03:04:40;71.23;;;35.67;;
19187;SDS011;9726;52.198;8.792;2023-10-19T03:07:09;84.63;;;37.33;;
19187;SDS011;9726;52.198;8.792;2023-10-19T03:09:41;83.63;;;35.80;;
19187;SDS011;9726;52.198;8.792;2023-10-19T03:12:16;76.07;;;34.47;;
19187;SDS011;9726;52.198;8.792;2023-10-19T03:14:44;68.93;;;34.73;;
19187;SDS011;9726;52.198;8.792;2023-10-19T03:17:15;76.50;;;35.37;;
19187;SDS011;9726;52.198;8.792;2023-10-19T03:19:43;67.47;;;35.27;;
19187;SDS011;9726;52.198;8.792;2023-10-19T03:22:12;71.80;;;33.37;;
19187;SDS011;9726;52.198;8.792;2023-10-19T03:24:41;70.83;;;31.87;;
19187;SDS011;9726;52.198;8.792;2023-10-19T03:27:11;67.53;;;32.60;;
19187;SDS011;9726;52.198;8.792;2023-10-19T03:29:49;60.97;;;29.07;;
19187;SDS011;9726;52.198;8.792;2023-10-19T03:32:26;61.10;;;30.70;;
19187;SDS011;9726;52.198;8.792;2023-10-19T03:34:55;62.80;;;29.83;;
19187;SDS011;9726;52.198;8.792;2023-10-19T03:37:23;56.63;;;28.27;;
19187;SDS011;9726;52.198;8.792;2023-10-19T03:39:53;57.57;;;28.53;;
19187;SDS011;9726;52.198;8.792;2023-10-19T03:42:23;54.50;;;28.53;;
19187;SDS011;9726;52.198;8.792;2023-10-19T03:45:07;48.47;;;24.90;;
19187;SDS011;9726;52.198;8.792;2023-10-19T03:47:43;50.90;;;26.43;;
19187;SDS011;9726;52.198;8.792;2023-10-19T03:50:15;51.47;;;25.93;;
19187;SDS011;9726;52.198;8.792;2023-10-19T03:52:47;51.43;;;26.53;;
19187;SDS011;9726;52.198;8.792;2023-10-19T03:55:15;48.73;;;25.87;;
19187;SDS011;9726;52.198;8.792;2023-10-19T03:57:45;48.63;;;25.83;;
19187;SDS011;9726;52.198;8.792;2023-10-19T04:00:22;46.27;;;24.67;;
19187;SDS011;9726;52.198;8.792;2023-10-19T04:02:55;45.30;;;26.00;;
19187;SDS011;9726;52.198;8.792;2023-10-19T04:05:25;49.23;;;24.17;;
19187;SDS011;9726;52.198;8.792;2023-10-19T04:07:55;44.80;;;22.30;;
19187;SDS011;9726;52.198;8.792;2023-10-19T04:10:25;44.20;;;24.20;;
19187;SDS011;9726;52.198;8.792;2023-10-19T04:12:56;41.87;;;21.63;;
19187;SDS011;9726;52.198;8.792;2023-10-19T04:15:28;45.57;;;21.80;;
19187;SDS011;9726;52.198;8.792;2023-10-19T04:17:56;46.17;;;22.90;;
19187;SDS011;9726;52.198;8.792;2023-10-19T04:20:26;44.70;;;22.30;;
19187;SDS011;9726;52.198;8.792;2023-10-19T04:23:07;45.33;;;22.07;;
19187;SDS011;9726;52.198;8.792;2023-10-19T04:25:39;163.90;;;27.13;;
19187;SDS011;9726;52.198;8.792;2023-10-19T04:28:06;192.00;;;25.87;;
19187;SDS011;9726;52.198;8.792;2023-10-19T04:30:38;523.00;;;41.87;;
19187;SDS011;9726;52.198;8.792;2023-10-19T04:33:06;131.50;;;24.47;;
19187;SDS011;9726;52.198;8.792;2023-10-19T04:35:37;148.27;;;24.93;;
19187;SDS011;9726;52.198;8.792;2023-10-19T04:38:08;116.10;;;24.23;;
19187;SDS011;9726;52.198;8.792;2023-10-19T04:40:36;56.23;;;20.67;;
19187;SDS011;9726;52.198;8.792;2023-10-19T04:43:03;68.03;;;22.03;;
19187;SDS011;9726;52.198;8.792;2023-10-19T04:45:34;69.73;;;22.60;;
19187;SDS011;9726;52.198;8.792;2023-10-19T04:48:02;49.07;;;22.63;;
19187;SDS011;9726;52.198;8.792;2023-10-19T04:50:31;62.93;;;23.90;;
19187;SDS011;9726;52.198;8.792;2023-10-19T04:52:59;114.47;;;25.03;;
19187;SDS011;9726;52.198;8.792;2023-10-19T04:55:26;48.38;;;25.30;;
19187;SDS011;9726;52.198;8.792;2023-10-19T04:57:54;109.27;;;27.27;;
19187;SDS011;9726;52.198;8.792;2023-10-19T05:00:21;182.80;;;29.20;;
19187;SDS011;9726;52.198;8.792;2023-10-19T05:02:51;76.40;;;25.40;;
19187;SDS011;9726;52.198;8.792;2023-10-19T05:05:19;69.77;;;23.63;;
19187;SDS011;9726;52.198;8.792;2023-10-19T05:07:46;117.53;;;25.93;;
19187;SDS011;9726;52.198;8.792;2023-10-19T05:10:14;47.20;;;21.53;;
19187;SDS011;9726;52.198;8.792;2023-10-19T05:12:41;41.67;;;21.40;;
19187;SDS011;9726;52.198;8.792;2023-10-19T05:15:09;47.17;;;21.30;;
19187;SDS011;9726;52.198;8.792;2023-10-19T05:17:36;40.50;;;21.30;;
19187;SDS011;9726;52.198;8.792;2023-10-19T05:20:05;45.93;;;21.77;;
19187;SDS011;9726;52.198;8.792;2023-10-19T05:22:34;87.90;;;24.77;;
19187;SDS011;9726;52.198;8.792;2023-10-19T05:25:01;44.50;;;22.30;;
19187;SDS011;9726;52.198;8.792;2023-10-19T05:27:30;44.23;;;21.90;;
19187;SDS011;9726;52.198;8.792;2023-10-19T05:29:59;46.63;;;21.10;;
19187;SDS011;9726;52.198;8.792;2023-10-19T05:32:29;55.27;;;23.97;;
19187;SDS011;9726;52.198;8.792;2023-10-19T05:34:57;56.30;;;22.53;;
19187;SDS011;9726;52.198;8.792;2023-10-19T05:37:26;48.63;;;22.60;;
19187;SDS011;9726;52.198;8.792;2023-10-19T05:39:56;47.97;;;23.53;;
19187;SDS011;9726;52.198;8.792;2023-10-19T05:42:23;44.77;;;23.53;;
19187;SDS011;9726;52.198;8.792;2023-10-19T05:44:52;45.97;;;23.30;;
19187;SDS011;9726;52.198;8.792;2023-10-19T05:47:19;48.77;;;22.87;;
19187;SDS011;9726;52.198;8.792;2023-10-19T05:49:47;53.93;;;24.07;;
19187;SDS011;9726;52.198;8.792;2023-10-19T05:52:15;48.60;;;22.30;;
19187;SDS011;9726;52.198;8.792;2023-10-19T05:54:42;49.70;;;23.17;;
19187;SDS011;9726;52.198;8.792;2023-10-19T05:57:10;58.37;;;23.20;;
19187;SDS011;9726;52.198;8.792;2023-10-19T05:59:37;48.30;;;23.97;;
19187;SDS011;9726;52.198;8.792;2023-10-19T06:02:05;50.90;;;24.20;;
19187;SDS011;9726;52.198;8.792;2023-10-19T06:04:34;43.13;;;23.67;;
19187;SDS011;9726;52.198;8.792;2023-10-19T06:07:02;50.50;;;23.87;;
19187;SDS011;9726;52.198;8.792;2023-10-19T06:09:29;50.73;;;25.07;;
19187;SDS011;9726;52.198;8.792;2023-10-19T06:11:57;43.17;;;23.63;;
19187;SDS011;9726;52.198;8.792;2023-10-19T06:14:24;47.80;;;23.50;;
19187;SDS011;9726;52.198;8.792;2023-10-19T06:16:52;43.97;;;22.90;;
19187;SDS011;9726;52.198;8.792;2023-10-19T06:19:20;46.77;;;24.67;;
19187;SDS011;9726;52.198;8.792;2023-10-19T06:21:50;49.63;;;24.40;;
19187;SDS011;9726;52.198;8.792;2023-10-19T06:24:17;44.87;;;23.30;;
19187;SDS011;9726;52.198;8.792;2023-10-19T06:26:45;49.80;;;23.57;;
19187;SDS011;9726;52.198;8.792;2023-10-19T06:29:12;45.70;;;23.03;;
19187;SDS011;9726;52.198;8.792;2023-10-19T06:31:40;45.80;;;22.57;;
19187;SDS011;9726;52.198;8.792;2023-10-19T06:34:07;44.87;;;23.27;;
19187;SDS011;9726;52.198;8.792;2023-10-19T06:36:37;41.13;;;23.00;;
19187;SDS011;9726;52.198;8.792;2023-10-19T06:39:04;48.70;;;23.47;;
19187;SDS011;9726;52.198;8.792;2023-10-19T06:41:32;45.07;;;24.10;;
19187;SDS011;9726;52.198;8.792;2023-10-19T06:44:01;40.97;;;21.90;;
19187;SDS011;9726;52.198;8.792;2023-10-19T06:46:28;44.80;;;22.97;;
19187;SDS011;9726;52.198;8.792;2023-10-19T06:48:57;39.57;;;21.93;;
19187;SDS011;9726;52.198;8.792;2023-10-19T06:51:27;47.77;;;22.80;;
19187;SDS011;9726;52.198;8.792;2023-10-19T06:53:55;40.30;;;22.60;;
19187;SDS011;9726;52.198;8.792;2023-10-19T06:56:24;39.83;;;22.73;;
19187;SDS011;9726;52.198;8.792;2023-10-19T06:58:52;43.80;;;22.30;;
19187;SDS011;9726;52.198;8.792;2023-10-19T07:01:20;45.87;;;23.50;;
19187;SDS011;9726;52.198;8.792;2023-10-19T07:03:52;47.17;;;24.00;;
19187;SDS011;9726;52.198;8.792;2023-10-19T07:06:20;48.97;;;24.23;;
19187;SDS011;9726;52.198;8.792;2023-10-19T07:08:48;58.10;;;26.17;;
19187;SDS011;9726;52.198;8.792;2023-10-19T07:11:15;44.70;;;24.00;;
19187;SDS011;9726;52.198;8.792;2023-10-19T07:13:43;44.67;;;26.13;;
19187;SDS011;9726;52.198;8.792;2023-10-19T07:16:11;40.23;;;23.40;;
19187;SDS011;9726;52.198;8.792;2023-10-19T07:18:39;43.77;;;24.33;;
19187;SDS011;9726;52.198;8.792;2023-10-19T07:21:07;36.87;;;22.30;;
19187;SDS011;9726;52.198;8.792;2023-10-19T07:23:36;42.03;;;23.10;;
19187;SDS011;9726;52.198;8.792;2023-10-19T07:26:04;47.47;;;24.40;;
19187;SDS011;9726;52.198;8.792;2023-10-19T07:28:32;40.23;;;22.77;;
19187;SDS011;9726;52.198;8.792;2023-10-19T07:31:04;44.70;;;23.20;;
19187;SDS011;9726;52.198;8.792;2023-10-19T07:33:37;36.87;;;22.43;;
19187;SDS011;9726;52.198;8.792;2023-10-19T07:36:12;35.80;;;22.27;;
19187;SDS011;9726;52.198;8.792;2023-10-19T07:38:41;34.03;;;20.97;;
19187;SDS011;9726;52.198;8.792;2023-10-19T07:41:08;35.43;;;21.90;;
19187;SDS011;9726;52.198;8.792;2023-10-19T07:43:36;34.90;;;21.30;;
19187;SDS011;9726;52.198;8.792;2023-10-19T07:46:04;33.50;;;21.07;;
19187;SDS011;9726;52.198;8.792;2023-10-19T07:48:32;34.23;;;21.47;;
19187;SDS011;9726;52.198;8.792;2023-10-19T07:50:59;34.20;;;20.60;;
19187;SDS011;9726;52.198;8.792;2023-10-19T07:53:27;34.20;;;20.67;;
19187;SDS011;9726;52.198;8.792;2023-10-19T07:55:54;30.10;;;19.23;;
19187;SDS011;9726;52.198;8.792;2023-10-19T07:58:23;29.30;;;19.47;;
19187;SDS011;9726;52.198;8.792;2023-10-19T08:00:52;32.47;;;19.77;;
19187;SDS011;9726;52.198;8.792;2023-10-19T08:03:24;32.83;;;20.50;;
19187;SDS011;9726;52.198;8.792;2023-10-19T08:05:52;30.47;;;19.30;;
19187;SDS011;9726;52.198;8.792;2023-10-19T08:08:19;28.93;;;17.40;;
19187;SDS011;9726;52.198;8.792;2023-10-19T08:10:47;31.20;;;19.37;;
19187;SDS011;9726;52.198;8.792;2023-10-19T08:13:15;31.00;;;18.77;;
19187;SDS011;9726;52.198;8.792;2023-10-19T08:15:42;25.27;;;17.10;;
19187;SDS011;9726;52.198;8.792;2023-10-19T08:18:10;26.83;;;18.97;;
19187;SDS011;9726;52.198;8.792;2023-10-19T08:20:39;26.87;;;17.80;;
19187;SDS011;9726;52.198;8.792;2023-10-19T08:23:07;36.10;;;18.20;;
19187;SDS011;9726;52.198;8.792;2023-10-19T08:25:34;24.67;;;17.43;;
19187;SDS011;9726;52.198;8.792;2023-10-19T08:28:21;29.17;;;17.77;;
19187;SDS011;9726;52.198;8.792;2023-10-19T08:30:49;29.20;;;16.83;;
19187;SDS011;9726;52.198;8.792;2023-10-19T08:33:24;23.97;;;15.83;;
19187;SDS011;9726;52.198;8.792;2023-10-19T08:35:53;29.47;;;17.10;;
19187;SDS011;9726;52.198;8.792;2023-10-19T08:38:21;24.63;;;16.23;;
19187;SDS011;9726;52.198;8.792;2023-10-19T08:40:52;26.10;;;17.53;;
19187;SDS011;9726;52.198;8.792;2023-10-19T08:43:21;28.47;;;16.37;;
19187;SDS011;9726;52.198;8.792;2023-10-19T08:45:48;24.13;;;15.70;;
19187;SDS011;9726;52.198;8.792;2023-10-19T08:48:22;24.63;;;16.33;;
19187;SDS011;9726;52.198;8.792;2023-10-19T08:50:50;23.93;;;14.67;;
19187;SDS011;9726;52.198;8.792;2023-10-19T08:53:18;20.93;;;16.17;;
19187;SDS011;9726;52.198;8.792;2023-10-19T08:55:48;26.20;;;17.27;;
19187;SDS011;9726;52.198;8.792;2023-10-19T08:58:17;27.80;;;17.43;;
19187;SDS011;9726;52.198;8.792;2023-10-19T09:00:47;30.43;;;18.60;;
19187;SDS011;9726;52.198;8.792;2023-10-19T09:03:16;26.87;;;17.17;;
19187;SDS011;9726;52.198;8.792;2023-10-19T09:05:45;28.83;;;17.03;;
19187;SDS011;9726;52.198;8.792;2023-10-19T09:08:14;26.73;;;17.33;;
19187;SDS011;9726;52.198;8.792;2023-10-19T09:10:43;29.37;;;17.90;;
19187;SDS011;9726;52.198;8.792;2023-10-19T09:13:12;25.03;;;17.40;;
19187;SDS011;9726;52.198;8.792;2023-10-19T09:15:42;25.83;;;16.30;;
19187;SDS011;9726;52.198;8.792;2023-10-19T09:20:44;31.00;;;16.60;;
19187;SDS011;9726;52.198;8.792;2023-10-19T09:23:35;26.17;;;17.47;;
19187;SDS011;9726;52.198;8.792;2023-10-19T09:26:03;21.80;;;15.23;;
19187;SDS011;9726;52.198;8.792;2023-10-19T09:28:35;28.20;;;16.53;;
19187;SDS011;9726;52.198;8.792;2023-10-19T09:31:05;23.87;;;16.00;;
19187;SDS011;9726;52.198;8.792;2023-10-19T09:33:37;25.60;;;15.87;;
19187;SDS011;9726;52.198;8.792;2023-10-19T09:36:07;25.63;;;15.27;;
19187;SDS011;9726;52.198;8.792;2023-10-19T09:38:43;23.10;;;13.63;;
19187;SDS011;9726;52.198;8.792;2023-10-19T09:41:11;21.30;;;13.87;;
19187;SDS011;9726;52.198;8.792;2023-10-19T09:46:11;18.53;;;13.67;;
19187;SDS011;9726;52.198;8.792;2023-10-19T09:48:40;19.33;;;13.33;;
19187;SDS011;9726;52.198;8.792;2023-10-19T09:51:12;21.93;;;12.63;;
19187;SDS011;9726;52.198;8.792;2023-10-19T09:53:44;17.90;;;12.67;;
19187;SDS011;9726;52.198;8.792;2023-10-19T09:56:24;17.40;;;12.00;;
19187;SDS011;9726;52.198;8.792;2023-10-19T09:59:02;22.57;;;13.23;;
19187;SDS011;9726;52.198;8.792;2023-10-19T10:04:32;20.50;;;13.90;;
19187;SDS011;9726;52.198;8.792;2023-10-19T10:07:00;21.33;;;13.23;;
19187;SDS011;9726;52.198;8.792;2023-10-19T10:09:30;20.93;;;12.67;;
19187;SDS011;9726;52.198;8.792;2023-10-19T10:12:15;17.13;;;12.60;;
19187;SDS011;9726;52.198;8.792;2023-10-19T10:14:52;20.67;;;12.37;;
19187;SDS011;9726;52.198;8.792;2023-10-19T10:17:22;18.03;;;11.53;;
19187;SDS011;9726;52.198;8.792;2023-10-19T10:19:53;17.03;;;11.73;;
19187;SDS011;9726;52.198;8.792;2023-10-19T10:22:21;17.47;;;11.53;;
19187;SDS011;9726;52.198;8.792;2023-10-19T10:24:53;19.27;;;13.20;;
19187;SDS011;9726;52.198;8.792;2023-10-19T10:27:22;17.93;;;11.80;;
19187;SDS011;9726;52.198;8.792;2023-10-19T10:29:53;14.53;;;10.87;;
19187;SDS011;9726;52.198;8.792;2023-10-19T10:35:07;16.23;;;10.60;;
19187;SDS011;9726;52.198;8.792;2023-10-19T10:37:38;14.23;;;10.60;;
19187;SDS011;9726;52.198;8.792;2023-10-19T10:40:07;15.93;;;10.50;;
19187;SDS011;9726;52.198;8.792;2023-10-19T10:42:34;16.83;;;11.30;;
19187;SDS011;9726;52.198;8.792;2023-10-19T10:45:02;18.97;;;11.67;;
19187;SDS011;9726;52.198;8.792;2023-10-19T10:47:32;17.07;;;12.20;;
19187;SDS011;9726;52.198;8.792;2023-10-19T10:50:00;19.23;;;12.33;;
19187;SDS011;9726;52.198;8.792;2023-10-19T10:55:06;23.00;;;13.67;;
19187;SDS011;9726;52.198;8.792;2023-10-19T10:57:33;24.30;;;13.07;;
19187;SDS011;9726;52.198;8.792;2023-10-19T11:00:19;20.80;;;13.63;;
19187;SDS011;9726;52.198;8.792;2023-10-19T11:02:47;22.00;;;13.50;;
19187;SDS011;9726;52.198;8.792;2023-10-19T11:05:26;19.43;;;13.13;;
19187;SDS011;9726;52.198;8.792;2023-10-19T11:08:07;19.03;;;12.87;;
19187;SDS011;9726;52.198;8.792;2023-10-19T11:10:43;23.33;;;14.00;;
19187;SDS011;9726;52.198;8.792;2023-10-19T11:13:14;19.13;;;14.33;;
19187;SDS011;9726;52.198;8.792;2023-10-19T11:15:51;19.27;;;13.33;;
19187;SDS011;9726;52.198;8.792;2023-10-19T11:18:28;20.00;;;11.70;;
19187;SDS011;9726;52.198;8.792;2023-10-19T11:20:56;19.60;;;10.87;;
19187;SDS011;9726;52.198;8.792;2023-10-19T11:26:06;17.50;;;9.23;;
19187;SDS011;9726;52.198;8.792;2023-10-19T11:28:34;12.67;;;9.57;;
19187;SDS011;9726;52.198;8.792;2023-10-19T11:31:15;42.57;;;10.70;;
19187;SDS011;9726;52.198;8.792;2023-10-19T11:33:43;14.57;;;9.97;;
19187;SDS011;9726;52.198;8.792;2023-10-19T11:36:11;14.13;;;9.03;;
19187;SDS011;9726;52.198;8.792;2023-10-19T11:38:43;12.17;;;8.57;;
19187;SDS011;9726;52.198;8.792;2023-10-19T11:41:15;13.93;;;8.83;;
19187;SDS011;9726;52.198;8.792;2023-10-19T11:43:46;13.33;;;8.03;;
19187;SDS011;9726;52.198;8.792;2023-10-19T11:46:15;12.57;;;9.23;;
19187;SDS011;9726;52.198;8.792;2023-10-19T11:48:51;12.47;;;9.17;;
19187;SDS011;9726;52.198;8.792;2023-10-19T11:51:19;14.47;;;9.47;;
19187;SDS011;9726;52.198;8.792;2023-10-19T11:53:47;15.37;;;9.63;;
19187;SDS011;9726;52.198;8.792;2023-10-19T11:56:15;11.53;;;8.77;;
19187;SDS011;9726;52.198;8.792;2023-10-19T11:58:43;17.87;;;9.83;;
19187;SDS011;9726;52.198;8.792;2023-10-19T12:01:14;16.50;;;9.10;;
19187;SDS011;9726;52.198;8.792;2023-10-19T12:03:44;13.33;;;8.17;;
19187;SDS011;9726;52.198;8.792;2023-10-19T12:06:12;17.27;;;9.83;;
19187;SDS011;9726;52.198;8.792;2023-10-19T12:08:48;17.80;;;9.90;;
19187;SDS011;9726;52.198;8.792;2023-10-19T12:11:15;14.53;;;9.70;;
19187;SDS011;9726;52.198;8.792;2023-10-19T12:13:45;24.23;;;9.77;;
19187;SDS011;9726;52.198;8.792;2023-10-19T12:16:14;16.67;;;8.37;;
19187;SDS011;9726;52.198;8.792;2023-10-19T12:18:43;15.53;;;9.07;;
19187;SDS011;9726;52.198;8.792;2023-10-19T12:21:11;12.83;;;7.80;;
19187;SDS011;9726;52.198;8.792;2023-10-19T12:23:39;12.53;;;8.20;;
19187;SDS011;9726;52.198;8.792;2023-10-19T12:26:07;11.47;;;7.83;;
19187;SDS011;9726;52.198;8.792;2023-10-19T12:28:38;16.43;;;8.23;;
19187;SDS011;9726;52.198;8.792;2023-10-19T12:31:07;16.73;;;8.00;;
19187;SDS011;9726;52.198;8.792;2023-10-19T12:33:38;11.43;;;8.50;;
19187;SDS011;9726;52.198;8.792;2023-10-19T12:36:06;15.73;;;8.37;;
19187;SDS011;9726;52.198;8.792;2023-10-19T12:38:49;12.13;;;8.57;;
19187;SDS011;9726;52.198;8.792;2023-10-19T12:41:20;12.30;;;7.50;;
19187;SDS011;9726;52.198;8.792;2023-10-19T12:43:49;12.60;;;7.60;;
19187;SDS011;9726;52.198;8.792;2023-10-19T12:46:24;12.57;;;8.90;;
19187;SDS011;9726;52.198;8.792;2023-10-19T12:48:52;11.80;;;7.73;;
19187;SDS011;9726;52.198;8.792;2023-10-19T12:51:20;12.40;;;9.00;;
19187;SDS011;9726;52.198;8.792;2023-10-19T12:53:51;11.20;;;8.07;;
19187;SDS011;9726;52.198;8.792;2023-10-19T12:56:20;13.33;;;8.80;;
19187;SDS011;9726;52.198;8.792;2023-10-19T12:58:47;13.43;;;8.57;;
19187;SDS011;9726;52.198;8.792;2023-10-19T13:01:16;12.50;;;8.97;;
19187;SDS011;9726;52.198;8.792;2023-10-19T13:03:45;14.13;;;8.03;;
19187;SDS011;9726;52.198;8.792;2023-10-19T13:06:14;14.97;;;7.77;;
19187;SDS011;9726;52.198;8.792;2023-10-19T13:08:41;9.57;;;7.10;;
19187;SDS011;9726;52.198;8.792;2023-10-19T13:11:35;10.50;;;7.37;;
19187;SDS011;9726;52.198;8.792;2023-10-19T13:14:02;10.13;;;7.57;;
19187;SDS011;9726;52.198;8.792;2023-10-19T13:16:33;11.80;;;7.47;;
19187;SDS011;9726;52.198;8.792;2023-10-19T13:19:01;10.97;;;7.63;;
19187;SDS011;9726;52.198;8.792;2023-10-19T13:21:36;13.30;;;7.63;;
19187;SDS011;9726;52.198;8.792;2023-10-19T13:24:05;11.67;;;7.80;;
19187;SDS011;9726;52.198;8.792;2023-10-19T13:26:32;11.57;;;8.30;;
19187;SDS011;9726;52.198;8.792;2023-10-19T13:29:00;24.83;;;7.83;;
19187;SDS011;9726;52.198;8.792;2023-10-19T13:31:28;11.13;;;7.90;;
19187;SDS011;9726;52.198;8.792;2023-10-19T13:33:59;16.03;;;8.27;;
19187;SDS011;9726;52.198;8.792;2023-10-19T13:36:29;14.87;;;8.13;;
19187;SDS011;9726;52.198;8.792;2023-10-19T13:38:57;13.20;;;8.93;;
19187;SDS011;9726;52.198;8.792;2023-10-19T13:41:24;10.43;;;7.90;;
19187;SDS011;9726;52.198;8.792;2023-10-19T13:43:52;11.63;;;7.50;;
19187;SDS011;9726;52.198;8.792;2023-10-19T13:46:29;15.13;;;8.13;;
19187;SDS011;9726;52.198;8.792;2023-10-19T13:48:57;17.60;;;8.30;;
19187;SDS011;9726;52.198;8.792;2023-10-19T13:51:26;11.50;;;7.27;;
19187;SDS011;9726;52.198;8.792;2023-10-19T13:53:55;11.47;;;7.83;;
19187;SDS011;9726;52.198;8.792;2023-10-19T13:56:22;12.03;;;8.00;;
19187;SDS011;9726;52.198;8.792;2023-10-19T13:58:51;13.47;;;8.73;;
19187;SDS011;9726;52.198;8.792;2023-10-19T14:01:18;13.50;;;8.13;;
19187;SDS011;9726;52.198;8.792;2023-10-19T14:03:54;15.33;;;7.50;;
19187;SDS011;9726;52.198;8.792;2023-10-19T14:06:22;13.30;;;8.37;;
19187;SDS011;9726;52.198;8.792;2023-10-19T14:08:51;11.83;;;8.33;;
19187;SDS011;9726;52.198;8.792;2023-10-19T14:11:19;12.13;;;8.17;;
19187;SDS011;9726;52.198;8.792;2023-10-19T14:13:48;11.83;;;7.77;;
19187;SDS011;9726;52.198;8.792;2023-10-19T14:16:19;12.13;;;7.73;;
19187;SDS011;9726;52.198;8.792;2023-10-19T14:18:47;17.17;;;8.07;;
19187;SDS011;9726;52.198;8.792;2023-10-19T14:21:15;13.40;;;7.87;;
19187;SDS011;9726;52.198;8.792;2023-10-19T14:23:44;11.67;;;8.50;;
19187;SDS011;9726;52.198;8.792;2023-10-19T14:26:12;13.33;;;8.27;;
19187;SDS011;9726;52.198;8.792;2023-10-19T14:28:41;16.37;;;9.17;;
19187;SDS011;9726;52.198;8.792;2023-10-19T14:31:11;14.30;;;9.27;;
19187;SDS011;9726;52.198;8.792;2023-10-19T14:33:40;15.87;;;9.27;;
19187;SDS011;9726;52.198;8.792;2023-10-19T14:36:08;16.80;;;9.03;;
19187;SDS011;9726;52.198;8.792;2023-10-19T14:38:37;16.53;;;9.20;;
19187;SDS011;9726;52.198;8.792;2023-10-19T14:41:06;16.60;;;9.37;;
19187;SDS011;9726;52.198;8.792;2023-10-19T14:43:36;15.03;;;8.93;;
19187;SDS011;9726;52.198;8.792;2023-10-19T14:46:05;16.43;;;8.80;;
19187;SDS011;9726;52.198;8.792;2023-10-19T14:48:35;11.87;;;8.60;;
19187;SDS011;9726;52.198;8.792;2023-10-19T14:51:03;13.03;;;10.07;;
19187;SDS011;9726;52.198;8.792;2023-10-19T14:53:32;13.77;;;9.80;;
19187;SDS011;9726;52.198;8.792;2023-10-19T14:56:00;14.30;;;9.80;;
19187;SDS011;9726;52.198;8.792;2023-10-19T14:58:28;21.57;;;9.03;;
19187;SDS011;9726;52.198;8.792;2023-10-19T15:00:58;14.93;;;9.43;;
19187;SDS011;9726;52.198;8.792;2023-10-19T15:03:26;12.20;;;9.47;;
19187;SDS011;9726;52.198;8.792;2023-10-19T15:05:56;16.63;;;10.27;;
19187;SDS011;9726;52.198;8.792;2023-10-19T15:08:26;13.93;;;9.30;;
19187;SDS011;9726;52.198;8.792;2023-10-19T15:10:57;15.07;;;10.50;;
19187;SDS011;9726;52.198;8.792;2023-10-19T15:13:25;16.20;;;10.93;;
19187;SDS011;9726;52.198;8.792;2023-10-19T15:15:53;16.23;;;11.47;;